sensor_id;sensor_type;location;lat;lon;timestamp;temperature;humidity
74968;SHT30;63523;51.880;12.630;2022-12-07T00:03:45;1.61;91.28
74968;SHT30;63523;51.880;12.630;2022-12-07T00:06:13;1.50;91.36
74968;SHT30;63523;51.880;12.630;2022-12-07T00:08:39;1.42;91.52
74968;SHT30;63523;51.880;12.630;2022-12-07T00:11:07;1.35;91.58
74968;SHT30;63523;51.880;12.630;2022-12-07T00:13:34;1.27;91.69
74968;SHT30;63523;51.880;12.630;2022-12-07T00:16:05;1.17;91.93
74968;SHT30;63523;51.880;12.630;2022-12-07T00:18:30;1.12;92.69
74968;SHT30;63523;51.880;12.630;2022-12-07T00:21:16;1.13;92.96
74968;SHT30;63523;51.880;12.630;2022-12-07T00:23:44;1.10;92.94
74968;SHT30;63523;51.880;12.630;2022-12-07T00:26:20;1.08;93.30
74968;SHT30;63523;51.880;12.630;2022-12-07T00:28:57;1.06;93.07
74968;SHT30;63523;51.880;12.630;2022-12-07T00:31:27;1.00;92.74
74968;SHT30;63523;51.880;12.630;2022-12-07T00:33:53;0.95;93.02
74968;SHT30;63523;51.880;12.630;2022-12-07T00:36:20;0.92;92.84
74968;SHT30;63523;51.880;12.630;2022-12-07T00:38:47;0.88;92.92
74968;SHT30;63523;51.880;12.630;2022-12-07T00:41:17;0.85;92.83
74968;SHT30;63523;51.880;12.630;2022-12-07T00:43:44;0.79;92.93
74968;SHT30;63523;51.880;12.630;2022-12-07T00:46:11;0.80;92.98
74968;SHT30;63523;51.880;12.630;2022-12-07T00:48:36;0.76;92.96
74968;SHT30;63523;51.880;12.630;2022-12-07T00:51:02;0.76;93.10
74968;SHT30;63523;51.880;12.630;2022-12-07T00:53:28;0.76;92.86
74968;SHT30;63523;51.880;12.630;2022-12-07T00:55:54;0.75;93.05
74968;SHT30;63523;51.880;12.630;2022-12-07T00:58:22;0.72;92.97
74968;SHT30;63523;51.880;12.630;2022-12-07T01:00:47;0.72;93.10
74968;SHT30;63523;51.880;12.630;2022-12-07T01:03:15;0.70;93.15
74968;SHT30;63523;51.880;12.630;2022-12-07T01:05:49;0.73;93.22
74968;SHT30;63523;51.880;12.630;2022-12-07T01:08:15;0.73;93.08
74968;SHT30;63523;51.880;12.630;2022-12-07T01:10:40;0.78;93.10
74968;SHT30;63523;51.880;12.630;2022-12-07T01:13:06;0.79;93.32
74968;SHT30;63523;51.880;12.630;2022-12-07T01:15:31;0.80;93.39
74968;SHT30;63523;51.880;12.630;2022-12-07T01:17:56;0.82;93.43
74968;SHT30;63523;51.880;12.630;2022-12-07T01:20:22;0.83;93.42
74968;SHT30;63523;51.880;12.630;2022-12-07T01:22:48;0.83;93.60
74968;SHT30;63523;51.880;12.630;2022-12-07T01:25:13;0.83;93.73
74968;SHT30;63523;51.880;12.630;2022-12-07T01:27:39;0.85;93.68
74968;SHT30;63523;51.880;12.630;2022-12-07T01:30:05;0.85;93.90
74968;SHT30;63523;51.880;12.630;2022-12-07T01:32:32;0.83;93.91
74968;SHT30;63523;51.880;12.630;2022-12-07T01:34:57;0.83;93.72
74968;SHT30;63523;51.880;12.630;2022-12-07T01:37:23;0.80;93.55
74968;SHT30;63523;51.880;12.630;2022-12-07T01:39:50;0.78;93.29
74968;SHT30;63523;51.880;12.630;2022-12-07T01:42:16;0.76;93.36
74968;SHT30;63523;51.880;12.630;2022-12-07T01:47:47;0.79;93.80
74968;SHT30;63523;51.880;12.630;2022-12-07T01:50:16;0.80;93.91
74968;SHT30;63523;51.880;12.630;2022-12-07T01:52:43;0.88;93.76
74968;SHT30;63523;51.880;12.630;2022-12-07T01:55:12;0.88;93.86
74968;SHT30;63523;51.880;12.630;2022-12-07T01:57:41;0.89;93.83
74968;SHT30;63523;51.880;12.630;2022-12-07T02:00:08;0.92;93.74
74968;SHT30;63523;51.880;12.630;2022-12-07T02:02:38;0.92;93.69
74968;SHT30;63523;51.880;12.630;2022-12-07T02:05:05;0.93;93.69
74968;SHT30;63523;51.880;12.630;2022-12-07T02:07:33;0.97;93.75
74968;SHT30;63523;51.880;12.630;2022-12-07T02:10:20;1.01;93.93
74968;SHT30;63523;51.880;12.630;2022-12-07T02:12:49;1.06;93.83
74968;SHT30;63523;51.880;12.630;2022-12-07T02:15:15;1.07;93.69
74968;SHT30;63523;51.880;12.630;2022-12-07T02:23:00;1.20;93.54
74968;SHT30;63523;51.880;12.630;2022-12-07T02:30:40;1.24;93.49
74968;SHT30;63523;51.880;12.630;2022-12-07T02:33:24;1.24;93.39
74968;SHT30;63523;51.880;12.630;2022-12-07T02:36:12;1.31;93.46
74968;SHT30;63523;51.880;12.630;2022-12-07T02:38:55;1.35;93.40
74968;SHT30;63523;51.880;12.630;2022-12-07T02:41:35;1.38;93.36
74968;SHT30;63523;51.880;12.630;2022-12-07T02:44:06;1.42;93.25
74968;SHT30;63523;51.880;12.630;2022-12-07T02:46:36;1.48;93.28
74968;SHT30;63523;51.880;12.630;2022-12-07T02:49:03;1.50;93.28
74968;SHT30;63523;51.880;12.630;2022-12-07T02:51:31;1.59;93.29
74968;SHT30;63523;51.880;12.630;2022-12-07T02:53:57;1.62;93.05
74968;SHT30;63523;51.880;12.630;2022-12-07T02:59:11;1.78;92.49
74968;SHT30;63523;51.880;12.630;2022-12-07T03:02:28;1.80;92.55
74968;SHT30;63523;51.880;12.630;2022-12-07T03:07:06;1.82;92.48
74968;SHT30;63523;51.880;12.630;2022-12-07T03:09:43;1.89;92.03
74968;SHT30;63523;51.880;12.630;2022-12-07T03:12:14;1.89;92.09
74968;SHT30;63523;51.880;12.630;2022-12-07T03:14:49;1.87;92.28
74968;SHT30;63523;51.880;12.630;2022-12-07T03:17:21;1.89;92.28
74968;SHT30;63523;51.880;12.630;2022-12-07T03:19:49;1.89;92.53
74968;SHT30;63523;51.880;12.630;2022-12-07T03:22:17;1.96;92.52
74968;SHT30;63523;51.880;12.630;2022-12-07T03:24:50;1.95;92.28
74968;SHT30;63523;51.880;12.630;2022-12-07T03:30:20;2.09;91.77
74968;SHT30;63523;51.880;12.630;2022-12-07T03:32:55;2.03;91.92
74968;SHT30;63523;51.880;12.630;2022-12-07T03:37:57;2.06;92.14
74968;SHT30;63523;51.880;12.630;2022-12-07T03:43:18;2.03;91.90
74968;SHT30;63523;51.880;12.630;2022-12-07T03:48:59;2.07;91.69
74968;SHT30;63523;51.880;12.630;2022-12-07T03:51:38;2.09;91.82
74968;SHT30;63523;51.880;12.630;2022-12-07T03:54:17;2.10;91.84
74968;SHT30;63523;51.880;12.630;2022-12-07T03:56:45;2.13;91.65
74968;SHT30;63523;51.880;12.630;2022-12-07T03:59:12;2.13;91.08
74968;SHT30;63523;51.880;12.630;2022-12-07T04:01:42;2.13;91.31
74968;SHT30;63523;51.880;12.630;2022-12-07T04:04:08;2.21;91.20
74968;SHT30;63523;51.880;12.630;2022-12-07T04:06:33;2.13;91.11
74968;SHT30;63523;51.880;12.630;2022-12-07T04:08:58;2.11;91.41
74968;SHT30;63523;51.880;12.630;2022-12-07T04:11:24;2.13;91.40
74968;SHT30;63523;51.880;12.630;2022-12-07T04:13:49;2.10;91.61
74968;SHT30;63523;51.880;12.630;2022-12-07T04:16:33;2.16;91.14
74968;SHT30;63523;51.880;12.630;2022-12-07T04:18:59;2.16;91.23
74968;SHT30;63523;51.880;12.630;2022-12-07T04:21:24;2.09;91.31
74968;SHT30;63523;51.880;12.630;2022-12-07T04:23:50;2.09;90.86
74968;SHT30;63523;51.880;12.630;2022-12-07T04:26:15;2.00;91.21
74968;SHT30;63523;51.880;12.630;2022-12-07T04:28:41;2.03;91.35
74968;SHT30;63523;51.880;12.630;2022-12-07T04:31:06;1.96;91.01
74968;SHT30;63523;51.880;12.630;2022-12-07T04:33:32;1.92;91.38
74968;SHT30;63523;51.880;12.630;2022-12-07T04:35:57;1.93;91.53
74968;SHT30;63523;51.880;12.630;2022-12-07T04:38:23;1.92;91.48
74968;SHT30;63523;51.880;12.630;2022-12-07T04:40:48;1.92;91.76
74968;SHT30;63523;51.880;12.630;2022-12-07T04:43:13;1.90;91.99
74968;SHT30;63523;51.880;12.630;2022-12-07T04:45:39;1.87;92.32
74968;SHT30;63523;51.880;12.630;2022-12-07T04:48:05;1.92;92.50
74968;SHT30;63523;51.880;12.630;2022-12-07T04:50:30;1.97;92.44
74968;SHT30;63523;51.880;12.630;2022-12-07T04:52:56;2.04;92.52
74968;SHT30;63523;51.880;12.630;2022-12-07T04:55:21;2.07;92.08
74968;SHT30;63523;51.880;12.630;2022-12-07T04:57:47;2.07;92.38
74968;SHT30;63523;51.880;12.630;2022-12-07T05:00:12;2.14;92.42
74968;SHT30;63523;51.880;12.630;2022-12-07T05:02:38;2.16;92.28
74968;SHT30;63523;51.880;12.630;2022-12-07T05:05:03;2.21;92.37
74968;SHT30;63523;51.880;12.630;2022-12-07T05:07:29;2.24;92.17
74968;SHT30;63523;51.880;12.630;2022-12-07T05:09:54;2.27;92.47
74968;SHT30;63523;51.880;12.630;2022-12-07T05:12:20;2.28;92.44
74968;SHT30;63523;51.880;12.630;2022-12-07T05:14:45;2.31;92.53
74968;SHT30;63523;51.880;12.630;2022-12-07T05:17:11;2.34;92.45
74968;SHT30;63523;51.880;12.630;2022-12-07T05:19:37;2.42;91.94
74968;SHT30;63523;51.880;12.630;2022-12-07T05:22:02;2.46;92.05
74968;SHT30;63523;51.880;12.630;2022-12-07T05:24:28;2.48;92.07
74968;SHT30;63523;51.880;12.630;2022-12-07T05:26:53;2.52;91.88
74968;SHT30;63523;51.880;12.630;2022-12-07T05:29:19;2.53;91.86
74968;SHT30;63523;51.880;12.630;2022-12-07T05:31:44;2.56;92.00
74968;SHT30;63523;51.880;12.630;2022-12-07T05:34:10;2.59;91.55
74968;SHT30;63523;51.880;12.630;2022-12-07T05:36:36;2.56;91.59
74968;SHT30;63523;51.880;12.630;2022-12-07T05:39:02;2.55;91.96
74968;SHT30;63523;51.880;12.630;2022-12-07T05:41:27;2.63;91.84
74968;SHT30;63523;51.880;12.630;2022-12-07T05:44:11;2.63;91.74
74968;SHT30;63523;51.880;12.630;2022-12-07T05:46:37;2.69;91.52
74968;SHT30;63523;51.880;12.630;2022-12-07T05:49:02;2.66;91.44
74968;SHT30;63523;51.880;12.630;2022-12-07T05:51:28;2.62;91.62
74968;SHT30;63523;51.880;12.630;2022-12-07T05:53:54;2.68;91.18
74968;SHT30;63523;51.880;12.630;2022-12-07T05:56:19;2.63;91.96
74968;SHT30;63523;51.880;12.630;2022-12-07T05:58:45;2.71;91.95
74968;SHT30;63523;51.880;12.630;2022-12-07T06:01:29;2.66;92.10
74968;SHT30;63523;51.880;12.630;2022-12-07T06:03:55;2.72;91.93
74968;SHT30;63523;51.880;12.630;2022-12-07T06:06:20;2.73;92.28
74968;SHT30;63523;51.880;12.630;2022-12-07T06:08:46;2.76;92.22
74968;SHT30;63523;51.880;12.630;2022-12-07T06:11:11;2.72;92.16
74968;SHT30;63523;51.880;12.630;2022-12-07T06:13:55;2.73;92.31
74968;SHT30;63523;51.880;12.630;2022-12-07T06:16:21;2.79;92.26
74968;SHT30;63523;51.880;12.630;2022-12-07T06:18:46;2.79;92.44
74968;SHT30;63523;51.880;12.630;2022-12-07T06:21:12;2.80;92.39
74968;SHT30;63523;51.880;12.630;2022-12-07T06:23:38;2.85;92.34
74968;SHT30;63523;51.880;12.630;2022-12-07T06:26:03;2.87;92.44
74968;SHT30;63523;51.880;12.630;2022-12-07T06:28:29;2.87;92.19
74968;SHT30;63523;51.880;12.630;2022-12-07T06:30:58;2.83;92.90
74968;SHT30;63523;51.880;12.630;2022-12-07T06:33:24;2.85;93.06
74968;SHT30;63523;51.880;12.630;2022-12-07T06:35:50;2.95;93.04
74968;SHT30;63523;51.880;12.630;2022-12-07T06:38:15;3.00;92.19
74968;SHT30;63523;51.880;12.630;2022-12-07T06:40:41;3.03;92.18
74968;SHT30;63523;51.880;12.630;2022-12-07T06:43:06;2.97;92.78
74968;SHT30;63523;51.880;12.630;2022-12-07T06:45:32;3.03;92.79
74968;SHT30;63523;51.880;12.630;2022-12-07T06:47:57;3.11;92.25
74968;SHT30;63523;51.880;12.630;2022-12-07T06:50:22;3.14;92.17
74968;SHT30;63523;51.880;12.630;2022-12-07T06:52:48;3.13;92.61
74968;SHT30;63523;51.880;12.630;2022-12-07T06:55:13;3.24;92.23
74968;SHT30;63523;51.880;12.630;2022-12-07T06:57:39;3.34;92.15
74968;SHT30;63523;51.880;12.630;2022-12-07T07:00:05;3.31;91.90
74968;SHT30;63523;51.880;12.630;2022-12-07T07:02:30;3.34;92.11
74968;SHT30;63523;51.880;12.630;2022-12-07T07:04:56;3.35;92.49
74968;SHT30;63523;51.880;12.630;2022-12-07T07:07:21;3.31;92.52
74968;SHT30;63523;51.880;12.630;2022-12-07T07:09:47;3.35;92.48
74968;SHT30;63523;51.880;12.630;2022-12-07T07:12:12;3.35;92.52
74968;SHT30;63523;51.880;12.630;2022-12-07T07:14:38;3.38;92.39
74968;SHT30;63523;51.880;12.630;2022-12-07T07:17:03;3.38;92.74
74968;SHT30;63523;51.880;12.630;2022-12-07T07:19:29;3.51;92.00
74968;SHT30;63523;51.880;12.630;2022-12-07T07:21:54;3.45;91.95
74968;SHT30;63523;51.880;12.630;2022-12-07T07:24:20;3.44;92.10
74968;SHT30;63523;51.880;12.630;2022-12-07T07:26:45;3.48;91.73
74968;SHT30;63523;51.880;12.630;2022-12-07T07:29:10;3.52;91.48
74968;SHT30;63523;51.880;12.630;2022-12-07T07:31:36;3.48;91.73
74968;SHT30;63523;51.880;12.630;2022-12-07T07:34:02;3.48;91.73
74968;SHT30;63523;51.880;12.630;2022-12-07T07:36:28;3.54;91.65
74968;SHT30;63523;51.880;12.630;2022-12-07T07:38:53;3.52;91.90
74968;SHT30;63523;51.880;12.630;2022-12-07T07:41:19;3.55;91.71
74968;SHT30;63523;51.880;12.630;2022-12-07T07:43:45;3.58;91.97
74968;SHT30;63523;51.880;12.630;2022-12-07T07:46:10;3.72;92.02
74968;SHT30;63523;51.880;12.630;2022-12-07T07:48:36;3.62;91.73
74968;SHT30;63523;51.880;12.630;2022-12-07T07:51:05;3.63;91.97
74968;SHT30;63523;51.880;12.630;2022-12-07T07:53:31;3.61;91.86
74968;SHT30;63523;51.880;12.630;2022-12-07T07:55:57;3.65;91.95
74968;SHT30;63523;51.880;12.630;2022-12-07T07:58:23;3.69;91.64
74968;SHT30;63523;51.880;12.630;2022-12-07T08:00:49;3.76;91.59
74968;SHT30;63523;51.880;12.630;2022-12-07T08:03:15;3.75;91.67
74968;SHT30;63523;51.880;12.630;2022-12-07T08:05:40;3.78;91.87
74968;SHT30;63523;51.880;12.630;2022-12-07T08:08:06;3.78;91.74
74968;SHT30;63523;51.880;12.630;2022-12-07T08:10:31;3.80;91.74
74968;SHT30;63523;51.880;12.630;2022-12-07T08:12:58;3.87;91.46
74968;SHT30;63523;51.880;12.630;2022-12-07T08:15:37;3.82;91.15
74968;SHT30;63523;51.880;12.630;2022-12-07T08:18:03;3.94;91.15
74968;SHT30;63523;51.880;12.630;2022-12-07T08:20:30;3.83;91.24
74968;SHT30;63523;51.880;12.630;2022-12-07T08:22:57;3.82;91.44
74968;SHT30;63523;51.880;12.630;2022-12-07T08:25:22;3.76;91.53
74968;SHT30;63523;51.880;12.630;2022-12-07T08:27:48;3.85;91.44
74968;SHT30;63523;51.880;12.630;2022-12-07T08:30:14;3.83;91.74
74968;SHT30;63523;51.880;12.630;2022-12-07T08:32:40;3.85;91.51
74968;SHT30;63523;51.880;12.630;2022-12-07T08:35:06;3.91;91.42
74968;SHT30;63523;51.880;12.630;2022-12-07T08:37:32;3.98;91.11
74968;SHT30;63523;51.880;12.630;2022-12-07T08:39:58;4.01;90.98
74968;SHT30;63523;51.880;12.630;2022-12-07T08:42:23;4.14;90.39
74968;SHT30;63523;51.880;12.630;2022-12-07T08:44:53;4.13;89.93
74968;SHT30;63523;51.880;12.630;2022-12-07T08:47:18;4.15;90.05
74968;SHT30;63523;51.880;12.630;2022-12-07T08:49:46;4.27;89.50
74968;SHT30;63523;51.880;12.630;2022-12-07T08:52:12;4.32;89.96
74968;SHT30;63523;51.880;12.630;2022-12-07T08:54:39;4.27;90.17
74968;SHT30;63523;51.880;12.630;2022-12-07T08:57:06;4.32;89.69
74968;SHT30;63523;51.880;12.630;2022-12-07T08:59:35;4.44;89.92
74968;SHT30;63523;51.880;12.630;2022-12-07T09:02:04;4.40;89.03
74968;SHT30;63523;51.880;12.630;2022-12-07T09:04:30;4.31;89.36
74968;SHT30;63523;51.880;12.630;2022-12-07T09:06:56;4.35;89.46
74968;SHT30;63523;51.880;12.630;2022-12-07T09:09:22;4.34;89.20
74968;SHT30;63523;51.880;12.630;2022-12-07T09:11:47;4.31;89.50
74968;SHT30;63523;51.880;12.630;2022-12-07T09:14:13;4.30;89.76
74968;SHT30;63523;51.880;12.630;2022-12-07T09:16:39;4.41;89.04
74968;SHT30;63523;51.880;12.630;2022-12-07T09:19:04;4.38;89.08
74968;SHT30;63523;51.880;12.630;2022-12-07T09:21:30;4.51;89.20
74968;SHT30;63523;51.880;12.630;2022-12-07T09:23:55;4.53;88.29
74968;SHT30;63523;51.880;12.630;2022-12-07T09:26:21;4.53;88.61
74968;SHT30;63523;51.880;12.630;2022-12-07T09:28:47;4.53;88.64
74968;SHT30;63523;51.880;12.630;2022-12-07T09:31:12;4.62;87.95
74968;SHT30;63523;51.880;12.630;2022-12-07T09:33:38;4.69;87.71
74968;SHT30;63523;51.880;12.630;2022-12-07T09:36:04;4.61;87.54
74968;SHT30;63523;51.880;12.630;2022-12-07T09:38:30;4.62;88.25
74968;SHT30;63523;51.880;12.630;2022-12-07T09:40:56;4.59;87.50
74968;SHT30;63523;51.880;12.630;2022-12-07T09:43:24;4.58;87.75
74968;SHT30;63523;51.880;12.630;2022-12-07T09:45:54;4.65;87.49
74968;SHT30;63523;51.880;12.630;2022-12-07T09:48:39;4.59;87.09
74968;SHT30;63523;51.880;12.630;2022-12-07T09:51:20;4.62;87.25
74968;SHT30;63523;51.880;12.630;2022-12-07T09:53:47;4.58;86.97
74968;SHT30;63523;51.880;12.630;2022-12-07T09:56:14;4.61;87.14
74968;SHT30;63523;51.880;12.630;2022-12-07T09:58:40;4.65;87.32
74968;SHT30;63523;51.880;12.630;2022-12-07T10:01:16;4.76;86.69
74968;SHT30;63523;51.880;12.630;2022-12-07T10:06:13;4.75;86.25
74968;SHT30;63523;51.880;12.630;2022-12-07T10:08:39;4.81;84.84
74968;SHT30;63523;51.880;12.630;2022-12-07T10:11:07;4.73;85.35
74968;SHT30;63523;51.880;12.630;2022-12-07T10:13:38;4.73;86.11
74968;SHT30;63523;51.880;12.630;2022-12-07T10:16:07;4.83;85.54
74968;SHT30;63523;51.880;12.630;2022-12-07T10:18:51;4.84;85.24
74968;SHT30;63523;51.880;12.630;2022-12-07T10:21:19;4.80;85.27
74968;SHT30;63523;51.880;12.630;2022-12-07T10:26:36;4.84;86.54
74968;SHT30;63523;51.880;12.630;2022-12-07T10:31:40;4.72;86.31
74968;SHT30;63523;51.880;12.630;2022-12-07T10:34:25;4.69;86.42
74968;SHT30;63523;51.880;12.630;2022-12-07T10:36:52;4.79;87.03
74968;SHT30;63523;51.880;12.630;2022-12-07T10:39:22;4.79;86.39
74968;SHT30;63523;51.880;12.630;2022-12-07T10:41:59;4.79;86.54
74968;SHT30;63523;51.880;12.630;2022-12-07T10:44:27;4.83;85.82
74968;SHT30;63523;51.880;12.630;2022-12-07T10:47:12;4.81;85.26
74968;SHT30;63523;51.880;12.630;2022-12-07T11:04:38;4.79;85.87
74968;SHT30;63523;51.880;12.630;2022-12-07T11:07:39;4.87;86.82
74968;SHT30;63523;51.880;12.630;2022-12-07T11:10:25;5.03;86.59
74968;SHT30;63523;51.880;12.630;2022-12-07T11:18:27;5.04;86.25
74968;SHT30;63523;51.880;12.630;2022-12-07T11:21:19;5.00;85.34
74968;SHT30;63523;51.880;12.630;2022-12-07T11:24:08;4.93;85.07
74968;SHT30;63523;51.880;12.630;2022-12-07T11:29:33;4.83;85.22
74968;SHT30;63523;51.880;12.630;2022-12-07T11:32:25;4.80;85.90
74968;SHT30;63523;51.880;12.630;2022-12-07T11:37:49;4.72;85.64
74968;SHT30;63523;51.880;12.630;2022-12-07T11:40:26;4.76;85.94
74968;SHT30;63523;51.880;12.630;2022-12-07T11:43:02;4.80;85.63
74968;SHT30;63523;51.880;12.630;2022-12-07T11:45:32;4.87;85.14
74968;SHT30;63523;51.880;12.630;2022-12-07T11:48:01;4.91;83.78
74968;SHT30;63523;51.880;12.630;2022-12-07T11:50:37;5.00;83.12
74968;SHT30;63523;51.880;12.630;2022-12-07T12:03:42;5.14;82.87
74968;SHT30;63523;51.880;12.630;2022-12-07T12:06:09;5.20;82.53
74968;SHT30;63523;51.880;12.630;2022-12-07T12:08:44;5.08;82.52
74968;SHT30;63523;51.880;12.630;2022-12-07T12:24:39;5.06;82.01
74968;SHT30;63523;51.880;12.630;2022-12-07T12:27:08;5.11;83.40
74968;SHT30;63523;51.880;12.630;2022-12-07T12:29:39;5.13;82.87
74968;SHT30;63523;51.880;12.630;2022-12-07T12:32:38;5.08;82.64
74968;SHT30;63523;51.880;12.630;2022-12-07T12:37:49;5.18;82.04
74968;SHT30;63523;51.880;12.630;2022-12-07T12:42:55;5.08;82.31
74968;SHT30;63523;51.880;12.630;2022-12-07T12:48:03;5.04;83.17
74968;SHT30;63523;51.880;12.630;2022-12-07T12:50:30;5.15;82.17
74968;SHT30;63523;51.880;12.630;2022-12-07T13:00:43;5.01;82.45
74968;SHT30;63523;51.880;12.630;2022-12-07T13:03:26;4.93;83.05
74968;SHT30;63523;51.880;12.630;2022-12-07T13:06:32;4.97;82.41
74968;SHT30;63523;51.880;12.630;2022-12-07T13:09:01;4.96;83.62
74968;SHT30;63523;51.880;12.630;2022-12-07T13:11:33;4.94;82.88
74968;SHT30;63523;51.880;12.630;2022-12-07T13:25:09;4.87;82.65
74968;SHT30;63523;51.880;12.630;2022-12-07T13:27:38;4.94;82.67
74968;SHT30;63523;51.880;12.630;2022-12-07T13:30:20;4.86;83.53
74968;SHT30;63523;51.880;12.630;2022-12-07T13:32:54;4.86;83.56
74968;SHT30;63523;51.880;12.630;2022-12-07T13:35:36;4.83;83.03
74968;SHT30;63523;51.880;12.630;2022-12-07T13:38:25;4.89;82.96
74968;SHT30;63523;51.880;12.630;2022-12-07T13:43:54;4.84;83.02
74968;SHT30;63523;51.880;12.630;2022-12-07T13:46:44;4.90;82.61
74968;SHT30;63523;51.880;12.630;2022-12-07T13:49:24;4.96;82.02
74968;SHT30;63523;51.880;12.630;2022-12-07T13:51:50;4.81;81.96
74968;SHT30;63523;51.880;12.630;2022-12-07T13:54:17;4.77;82.49
74968;SHT30;63523;51.880;12.630;2022-12-07T13:56:43;4.83;81.76
74968;SHT30;63523;51.880;12.630;2022-12-07T13:59:23;4.79;82.13
74968;SHT30;63523;51.880;12.630;2022-12-07T14:01:51;4.76;82.51
74968;SHT30;63523;51.880;12.630;2022-12-07T14:06:55;4.73;82.38
74968;SHT30;63523;51.880;12.630;2022-12-07T14:09:23;4.76;82.38
74968;SHT30;63523;51.880;12.630;2022-12-07T14:11:50;4.73;82.58
74968;SHT30;63523;51.880;12.630;2022-12-07T14:14:20;4.68;82.85
74968;SHT30;63523;51.880;12.630;2022-12-07T14:16:57;4.63;83.20
74968;SHT30;63523;51.880;12.630;2022-12-07T14:19:59;4.61;82.94
74968;SHT30;63523;51.880;12.630;2022-12-07T14:22:31;4.56;83.32
74968;SHT30;63523;51.880;12.630;2022-12-07T14:27:32;4.53;83.71
74968;SHT30;63523;51.880;12.630;2022-12-07T14:30:00;4.49;83.50
74968;SHT30;63523;51.880;12.630;2022-12-07T14:32:28;4.52;83.52
74968;SHT30;63523;51.880;12.630;2022-12-07T14:35:07;4.49;84.13
74968;SHT30;63523;51.880;12.630;2022-12-07T14:37:35;4.49;84.43
74968;SHT30;63523;51.880;12.630;2022-12-07T14:40:01;4.45;84.77
74968;SHT30;63523;51.880;12.630;2022-12-07T14:42:30;4.46;85.33
74968;SHT30;63523;51.880;12.630;2022-12-07T14:44:57;4.45;84.69
74968;SHT30;63523;51.880;12.630;2022-12-07T14:47:24;4.37;84.98
74968;SHT30;63523;51.880;12.630;2022-12-07T14:49:50;4.40;84.67
74968;SHT30;63523;51.880;12.630;2022-12-07T14:52:26;4.34;84.48
74968;SHT30;63523;51.880;12.630;2022-12-07T14:54:52;4.35;84.11
74968;SHT30;63523;51.880;12.630;2022-12-07T14:57:18;4.31;84.56
74968;SHT30;63523;51.880;12.630;2022-12-07T14:59:43;4.25;84.14
74968;SHT30;63523;51.880;12.630;2022-12-07T15:02:11;4.22;84.69
74968;SHT30;63523;51.880;12.630;2022-12-07T15:04:37;4.15;83.79
74968;SHT30;63523;51.880;12.630;2022-12-07T15:07:04;4.11;83.65
74968;SHT30;63523;51.880;12.630;2022-12-07T15:09:31;4.17;82.51
74968;SHT30;63523;51.880;12.630;2022-12-07T15:11:56;4.18;82.48
74968;SHT30;63523;51.880;12.630;2022-12-07T15:14:22;4.17;81.89
74968;SHT30;63523;51.880;12.630;2022-12-07T15:16:47;4.14;81.92
74968;SHT30;63523;51.880;12.630;2022-12-07T15:19:21;4.17;81.91
74968;SHT30;63523;51.880;12.630;2022-12-07T15:21:52;4.22;81.97
74968;SHT30;63523;51.880;12.630;2022-12-07T15:24:18;4.15;82.26
74968;SHT30;63523;51.880;12.630;2022-12-07T15:26:43;4.11;82.90
74968;SHT30;63523;51.880;12.630;2022-12-07T15:29:09;4.11;83.36
74968;SHT30;63523;51.880;12.630;2022-12-07T15:31:35;4.11;83.12
74968;SHT30;63523;51.880;12.630;2022-12-07T15:34:01;4.13;82.92
74968;SHT30;63523;51.880;12.630;2022-12-07T15:36:28;4.17;82.90
74968;SHT30;63523;51.880;12.630;2022-12-07T15:38:54;4.14;83.41
74968;SHT30;63523;51.880;12.630;2022-12-07T15:41:20;4.14;83.22
74968;SHT30;63523;51.880;12.630;2022-12-07T15:43:46;4.10;83.38
74968;SHT30;63523;51.880;12.630;2022-12-07T15:46:44;4.01;84.29
74968;SHT30;63523;51.880;12.630;2022-12-07T15:49:17;3.93;84.85
74968;SHT30;63523;51.880;12.630;2022-12-07T15:51:43;3.85;85.24
74968;SHT30;63523;51.880;12.630;2022-12-07T15:54:25;3.82;85.82
74968;SHT30;63523;51.880;12.630;2022-12-07T15:56:52;3.79;85.85
74968;SHT30;63523;51.880;12.630;2022-12-07T15:59:18;3.78;86.09
74968;SHT30;63523;51.880;12.630;2022-12-07T16:01:43;3.83;86.06
74968;SHT30;63523;51.880;12.630;2022-12-07T16:04:09;3.96;85.50
74968;SHT30;63523;51.880;12.630;2022-12-07T16:06:35;3.89;86.13
74968;SHT30;63523;51.880;12.630;2022-12-07T16:09:00;3.91;86.43
74968;SHT30;63523;51.880;12.630;2022-12-07T16:11:26;3.96;86.10
74968;SHT30;63523;51.880;12.630;2022-12-07T16:13:52;3.96;86.05
74968;SHT30;63523;51.880;12.630;2022-12-07T16:16:19;3.93;86.23
74968;SHT30;63523;51.880;12.630;2022-12-07T16:18:45;4.00;86.30
74968;SHT30;63523;51.880;12.630;2022-12-07T16:21:12;4.00;86.09
74968;SHT30;63523;51.880;12.630;2022-12-07T16:23:38;3.94;86.40
74968;SHT30;63523;51.880;12.630;2022-12-07T16:26:09;3.93;86.32
74968;SHT30;63523;51.880;12.630;2022-12-07T16:28:35;3.94;86.39
74968;SHT30;63523;51.880;12.630;2022-12-07T16:31:06;3.91;86.67
74968;SHT30;63523;51.880;12.630;2022-12-07T16:33:34;3.89;86.76
74968;SHT30;63523;51.880;12.630;2022-12-07T16:36:00;3.87;86.44
74968;SHT30;63523;51.880;12.630;2022-12-07T16:38:26;3.89;86.72
74968;SHT30;63523;51.880;12.630;2022-12-07T16:40:52;3.87;86.53
74968;SHT30;63523;51.880;12.630;2022-12-07T16:43:18;3.87;86.54
74968;SHT30;63523;51.880;12.630;2022-12-07T16:45:45;3.87;86.46
74968;SHT30;63523;51.880;12.630;2022-12-07T16:48:11;3.86;86.60
74968;SHT30;63523;51.880;12.630;2022-12-07T16:50:39;3.96;85.81
74968;SHT30;63523;51.880;12.630;2022-12-07T16:53:06;3.98;85.59
74968;SHT30;63523;51.880;12.630;2022-12-07T16:55:35;3.93;85.73
74968;SHT30;63523;51.880;12.630;2022-12-07T16:58:01;3.91;86.02
74968;SHT30;63523;51.880;12.630;2022-12-07T17:00:27;3.91;86.24
74968;SHT30;63523;51.880;12.630;2022-12-07T17:02:52;3.85;86.35
74968;SHT30;63523;51.880;12.630;2022-12-07T17:05:20;3.82;86.37
74968;SHT30;63523;51.880;12.630;2022-12-07T17:07:46;3.78;86.63
74968;SHT30;63523;51.880;12.630;2022-12-07T17:10:11;3.78;86.57
74968;SHT30;63523;51.880;12.630;2022-12-07T17:12:37;3.78;86.69
74968;SHT30;63523;51.880;12.630;2022-12-07T17:15:03;3.75;86.78
74968;SHT30;63523;51.880;12.630;2022-12-07T17:17:51;3.79;86.23
74968;SHT30;63523;51.880;12.630;2022-12-07T17:20:18;3.76;86.31
74968;SHT30;63523;51.880;12.630;2022-12-07T17:22:46;3.76;86.27
74968;SHT30;63523;51.880;12.630;2022-12-07T17:25:12;3.76;86.34
74968;SHT30;63523;51.880;12.630;2022-12-07T17:27:37;3.75;86.37
74968;SHT30;63523;51.880;12.630;2022-12-07T17:30:04;3.78;86.44
74968;SHT30;63523;51.880;12.630;2022-12-07T17:32:30;3.72;86.20
74968;SHT30;63523;51.880;12.630;2022-12-07T17:34:55;3.75;86.44
74968;SHT30;63523;51.880;12.630;2022-12-07T17:37:21;3.69;86.51
74968;SHT30;63523;51.880;12.630;2022-12-07T17:39:46;3.66;86.90
74968;SHT30;63523;51.880;12.630;2022-12-07T17:42:12;3.75;86.04
74968;SHT30;63523;51.880;12.630;2022-12-07T17:44:56;3.75;86.06
74968;SHT30;63523;51.880;12.630;2022-12-07T17:47:21;3.69;86.39